NZ-0002 weather

Arrowsmith Station
Canterbury Region, New Zealand

Public forecast

Using degrees Celsius for public forecast. Weather courtesy of forecast.io.

METAR (pilot weather report)

Closest report is Christchurch International Airport, 59.7 nm (110.5 km) E. Retrieved 2019/06/26 03:30 UTC (0 seconds ago):

NZCH 260330Z AUTO 06009KT 9999 NCD 11/07 Q1030 NOSIG

TAF (pilot weather forecast)

Forecast is more than 12 hours old.

Closest forecast is Christchurch International Airport, 59.7 nm (110.5 km) E. Retrieved 2019/06/25 00:07 UTC (1 day ago):

TAF NZCH 252306Z 2600/2700 04010KT 9999 FEW012 BECMG 2604/2606 VRB02KT PROB30 TEMPO 2608/2614 2000 BR BECMG 2622/2700 04010KT